Commerce Township, Michigan
Current Conditions -  °F | °C
As of 10:53 PM on Sunday 23 Nov 2014 (Local Time) from KPTK Reporting Station
Moderate Rain Moderate Rain  
Wind Chill: 42°   Ceiling: 400
Heat Index: 48°   Visibility: 5mi
Dew Point: 46°   Wind: 15mph
Humidity: 93%   Direction: 110°ESE
Pressure: 29.3"   Gusts: NA
Location:  42.59°N, 83.48°W
Report Text: KPTK 240353Z 11013KT 5SM RA BR OVC004 09/08 A2930 RMK AO2 PRESFR SLP925 P0014 T00890078
Loading
Personal Weather Stations






























Interactive Weather Map New forecast layout! Learn more

10-Day Weather Forecast

Advertisements
Track Severe Weather on mobile